Startpagina
METAR-TAF:

METAR-TAF

Vliegvelden :

Hassi R'Mel, Algerije

breedte: 32-55-48N, lengte: 003-18-44E, hoogte: 774 m

Actueel weer

Dit bericht is 8 uur en het 58 minuten geleden gemaakt, om 18:00 UTC
Wind 14 kt uit het oosten
Temperatuur 12°C
Vochtigheid 62%
Druk 1019 hPa
Zicht 10 km of meer
Weinig wolken op 3300 ft

METAR: DAFH 071800Z 09014KT 9999 FEW033 12/05 Q1019

Tijdstip: 03:58 (02:58 UTC)

Verwachting

Dit bericht is 9 uur en het 58 minuten geleden gemaakt, om 17:00 UTC
Verwachting geldig van 07 om 18 UTC tot 08 om 03 UTC
Wind 8 kt uit het oosten
Zicht: 8000 m
Verspreide wolken op 4000 ft
Verspreide wolken op 10000 ft
Tijdelijke
van 07 om 18 UTC tot 07 om 20 UTC
Wind 15 kt uit het oosten met uitschieters tot 25 kt
Zicht: 5000 m
Weinig wolken op 3300 ft, Cumulonimbus.
Lage stuifzand

TAF: DAFH 071700Z 0718/0803 10008KT 8000 SCT040 SCT100 PRBO30 TEMPO 0718/0720 10015G25KT 5000 DRSA FEW033CB

Waarnemingen en weersverwachtingen van meer dan 4000 vliegvelden (METAR en TAF).

De beschikbare stations zijn de gele en rode punten op de kaart.

Ga met uw muis naar het station om de naam te zien.

Klik dan om waarnemingen en weersverwachtingen te zien.

kaart wijzigen: klik op de groene knoppen met een zwart kruis om in te zoomen, op de groene knop met een streepje om uit te zoomen of op de groene pijlen voor aangrenzende kaarten.


METAR-TAF: